sensor_id;sensor_type;location;lat;lon;timestamp;temperature;humidity
18934;DHT22;9599;53.706;10.384;2023-04-25T00:01:03;8.60;99.90
18934;DHT22;9599;53.706;10.384;2023-04-25T00:03:31;8.60;99.90
18934;DHT22;9599;53.706;10.384;2023-04-25T00:06:00;8.60;99.90
18934;DHT22;9599;53.706;10.384;2023-04-25T00:08:29;8.50;99.90
18934;DHT22;9599;53.706;10.384;2023-04-25T00:10:56;8.60;99.90
18934;DHT22;9599;53.706;10.384;2023-04-25T00:13:24;8.60;99.90
18934;DHT22;9599;53.706;10.384;2023-04-25T00:15:54;8.60;99.90
18934;DHT22;9599;53.706;10.384;2023-04-25T00:18:22;8.60;99.90
18934;DHT22;9599;53.706;10.384;2023-04-25T00:20:50;8.60;99.90
18934;DHT22;9599;53.706;10.384;2023-04-25T00:23:18;8.70;99.90
18934;DHT22;9599;53.706;10.384;2023-04-25T00:25:47;8.70;99.90
18934;DHT22;9599;53.706;10.384;2023-04-25T00:28:16;8.60;99.90
18934;DHT22;9599;53.706;10.384;2023-04-25T00:30:44;8.60;99.90
18934;DHT22;9599;53.706;10.384;2023-04-25T00:33:14;8.50;99.90
18934;DHT22;9599;53.706;10.384;2023-04-25T00:35:42;8.50;99.90
18934;DHT22;9599;53.706;10.384;2023-04-25T00:38:09;8.40;99.90
18934;DHT22;9599;53.706;10.384;2023-04-25T00:40:38;8.40;99.90
18934;DHT22;9599;53.706;10.384;2023-04-25T00:43:05;8.30;99.90
18934;DHT22;9599;53.706;10.384;2023-04-25T00:45:38;8.30;99.90
18934;DHT22;9599;53.706;10.384;2023-04-25T00:48:06;8.40;99.90
18934;DHT22;9599;53.706;10.384;2023-04-25T00:50:36;8.30;99.90
18934;DHT22;9599;53.706;10.384;2023-04-25T00:53:05;8.30;99.90
18934;DHT22;9599;53.706;10.384;2023-04-25T00:55:33;8.40;99.90
18934;DHT22;9599;53.706;10.384;2023-04-25T00:58:02;8.40;99.90
18934;DHT22;9599;53.706;10.384;2023-04-25T01:00:30;8.30;99.90
18934;DHT22;9599;53.706;10.384;2023-04-25T01:02:58;8.20;99.90
18934;DHT22;9599;53.706;10.384;2023-04-25T01:05:29;8.10;99.90
18934;DHT22;9599;53.706;10.384;2023-04-25T01:07:59;8.20;99.90
18934;DHT22;9599;53.706;10.384;2023-04-25T01:10:27;8.10;99.90
18934;DHT22;9599;53.706;10.384;2023-04-25T01:12:55;8.10;99.90
18934;DHT22;9599;53.706;10.384;2023-04-25T01:15:23;8.20;99.90
18934;DHT22;9599;53.706;10.384;2023-04-25T01:17:52;8.20;99.90
18934;DHT22;9599;53.706;10.384;2023-04-25T01:20:24;8.20;99.90
18934;DHT22;9599;53.706;10.384;2023-04-25T01:22:55;8.10;99.90
18934;DHT22;9599;53.706;10.384;2023-04-25T01:25:23;8.10;99.90
18934;DHT22;9599;53.706;10.384;2023-04-25T01:27:52;8.10;99.90
18934;DHT22;9599;53.706;10.384;2023-04-25T01:30:20;8.00;99.90
18934;DHT22;9599;53.706;10.384;2023-04-25T01:32:48;8.10;99.90
18934;DHT22;9599;53.706;10.384;2023-04-25T01:35:16;8.00;99.90
18934;DHT22;9599;53.706;10.384;2023-04-25T01:37:45;7.90;99.90
18934;DHT22;9599;53.706;10.384;2023-04-25T01:40:14;8.00;99.90
18934;DHT22;9599;53.706;10.384;2023-04-25T01:42:43;8.00;99.90
18934;DHT22;9599;53.706;10.384;2023-04-25T01:45:12;7.90;99.90
18934;DHT22;9599;53.706;10.384;2023-04-25T01:47:40;7.80;99.90
18934;DHT22;9599;53.706;10.384;2023-04-25T01:50:10;7.80;99.90
18934;DHT22;9599;53.706;10.384;2023-04-25T01:52:38;7.80;99.90
18934;DHT22;9599;53.706;10.384;2023-04-25T01:55:08;7.80;99.90
18934;DHT22;9599;53.706;10.384;2023-04-25T01:57:41;7.80;99.90
18934;DHT22;9599;53.706;10.384;2023-04-25T02:00:12;7.90;99.90
18934;DHT22;9599;53.706;10.384;2023-04-25T02:02:40;7.80;99.90
18934;DHT22;9599;53.706;10.384;2023-04-25T02:05:21;7.80;99.90
18934;DHT22;9599;53.706;10.384;2023-04-25T02:07:49;7.80;99.90
18934;DHT22;9599;53.706;10.384;2023-04-25T02:10:17;7.70;99.90
18934;DHT22;9599;53.706;10.384;2023-04-25T02:12:56;7.70;99.90
18934;DHT22;9599;53.706;10.384;2023-04-25T02:15:46;7.70;99.90
18934;DHT22;9599;53.706;10.384;2023-04-25T02:18:16;7.60;99.90
18934;DHT22;9599;53.706;10.384;2023-04-25T02:20:44;7.60;99.90
18934;DHT22;9599;53.706;10.384;2023-04-25T02:23:12;7.60;99.90
18934;DHT22;9599;53.706;10.384;2023-04-25T02:25:42;7.60;99.90
18934;DHT22;9599;53.706;10.384;2023-04-25T02:28:11;7.60;99.90
18934;DHT22;9599;53.706;10.384;2023-04-25T02:30:39;7.60;99.90
18934;DHT22;9599;53.706;10.384;2023-04-25T02:33:07;7.50;99.90
18934;DHT22;9599;53.706;10.384;2023-04-25T02:35:35;7.50;99.90
18934;DHT22;9599;53.706;10.384;2023-04-25T02:38:03;7.40;99.90
18934;DHT22;9599;53.706;10.384;2023-04-25T02:40:32;7.40;99.90
18934;DHT22;9599;53.706;10.384;2023-04-25T02:43:00;7.40;99.90
18934;DHT22;9599;53.706;10.384;2023-04-25T02:45:29;7.40;99.90
18934;DHT22;9599;53.706;10.384;2023-04-25T02:47:57;7.30;99.90
18934;DHT22;9599;53.706;10.384;2023-04-25T02:50:25;7.30;99.90
18934;DHT22;9599;53.706;10.384;2023-04-25T02:52:53;7.30;99.90
18934;DHT22;9599;53.706;10.384;2023-04-25T02:55:26;7.20;99.90
18934;DHT22;9599;53.706;10.384;2023-04-25T02:57:55;7.10;99.90
18934;DHT22;9599;53.706;10.384;2023-04-25T03:00:47;7.30;99.90
18934;DHT22;9599;53.706;10.384;2023-04-25T03:03:16;7.20;99.90
18934;DHT22;9599;53.706;10.384;2023-04-25T03:05:45;7.30;99.90
18934;DHT22;9599;53.706;10.384;2023-04-25T03:08:14;7.30;99.90
18934;DHT22;9599;53.706;10.384;2023-04-25T03:10:42;7.30;99.90
18934;DHT22;9599;53.706;10.384;2023-04-25T03:13:11;7.20;99.90
18934;DHT22;9599;53.706;10.384;2023-04-25T03:15:41;7.20;99.90
18934;DHT22;9599;53.706;10.384;2023-04-25T03:18:10;7.10;99.90
18934;DHT22;9599;53.706;10.384;2023-04-25T03:20:39;7.10;99.90
18934;DHT22;9599;53.706;10.384;2023-04-25T03:23:08;7.00;99.90
18934;DHT22;9599;53.706;10.384;2023-04-25T03:25:39;7.00;99.90
18934;DHT22;9599;53.706;10.384;2023-04-25T03:28:07;7.00;99.90
18934;DHT22;9599;53.706;10.384;2023-04-25T03:30:35;6.90;99.90
18934;DHT22;9599;53.706;10.384;2023-04-25T03:33:03;6.90;99.90
18934;DHT22;9599;53.706;10.384;2023-04-25T03:35:32;6.80;99.90
18934;DHT22;9599;53.706;10.384;2023-04-25T03:38:00;6.80;99.90
18934;DHT22;9599;53.706;10.384;2023-04-25T03:40:33;6.70;99.90
18934;DHT22;9599;53.706;10.384;2023-04-25T03:43:07;6.60;99.90
18934;DHT22;9599;53.706;10.384;2023-04-25T03:45:37;6.60;99.90
18934;DHT22;9599;53.706;10.384;2023-04-25T03:48:06;6.60;99.90
18934;DHT22;9599;53.706;10.384;2023-04-25T03:50:35;6.60;99.90
18934;DHT22;9599;53.706;10.384;2023-04-25T03:53:05;6.60;99.90
18934;DHT22;9599;53.706;10.384;2023-04-25T03:55:52;6.50;99.90
18934;DHT22;9599;53.706;10.384;2023-04-25T03:58:20;6.50;99.90
18934;DHT22;9599;53.706;10.384;2023-04-25T04:00:49;6.50;99.90
18934;DHT22;9599;53.706;10.384;2023-04-25T04:03:17;6.40;99.90
18934;DHT22;9599;53.706;10.384;2023-04-25T04:05:47;6.50;99.90
18934;DHT22;9599;53.706;10.384;2023-04-25T04:08:16;6.50;99.90
18934;DHT22;9599;53.706;10.384;2023-04-25T04:10:44;6.40;99.90
18934;DHT22;9599;53.706;10.384;2023-04-25T04:13:12;6.40;99.90
18934;DHT22;9599;53.706;10.384;2023-04-25T04:15:41;6.40;99.90
18934;DHT22;9599;53.706;10.384;2023-04-25T04:18:09;6.50;99.90
18934;DHT22;9599;53.706;10.384;2023-04-25T04:20:38;6.40;99.90
18934;DHT22;9599;53.706;10.384;2023-04-25T04:23:08;6.40;99.90
18934;DHT22;9599;53.706;10.384;2023-04-25T04:25:36;6.40;99.90
18934;DHT22;9599;53.706;10.384;2023-04-25T04:28:17;6.40;99.90
18934;DHT22;9599;53.706;10.384;2023-04-25T04:30:51;6.50;99.90
18934;DHT22;9599;53.706;10.384;2023-04-25T04:33:19;6.40;99.90
18934;DHT22;9599;53.706;10.384;2023-04-25T04:35:54;6.40;99.90
18934;DHT22;9599;53.706;10.384;2023-04-25T04:38:23;6.40;99.90
18934;DHT22;9599;53.706;10.384;2023-04-25T04:40:54;6.40;99.90
18934;DHT22;9599;53.706;10.384;2023-04-25T04:43:29;6.50;99.90
18934;DHT22;9599;53.706;10.384;2023-04-25T04:46:17;6.40;99.90
18934;DHT22;9599;53.706;10.384;2023-04-25T04:49:09;6.50;99.90
18934;DHT22;9599;53.706;10.384;2023-04-25T04:51:56;6.50;99.90
18934;DHT22;9599;53.706;10.384;2023-04-25T04:54:53;6.50;99.90
18934;DHT22;9599;53.706;10.384;2023-04-25T04:57:35;6.50;99.90
18934;DHT22;9599;53.706;10.384;2023-04-25T05:00:21;6.50;99.90
18934;DHT22;9599;53.706;10.384;2023-04-25T05:02:55;6.50;99.90
18934;DHT22;9599;53.706;10.384;2023-04-25T05:05:43;6.60;99.90
18934;DHT22;9599;53.706;10.384;2023-04-25T05:08:32;6.50;99.90
18934;DHT22;9599;53.706;10.384;2023-04-25T05:11:27;6.60;99.90
18934;DHT22;9599;53.706;10.384;2023-04-25T05:14:14;6.70;99.90
18934;DHT22;9599;53.706;10.384;2023-04-25T05:16:48;6.80;99.90
18934;DHT22;9599;53.706;10.384;2023-04-25T05:19:29;6.80;99.90
18934;DHT22;9599;53.706;10.384;2023-04-25T05:22:18;6.80;99.90
18934;DHT22;9599;53.706;10.384;2023-04-25T05:25:08;6.80;99.90
18934;DHT22;9599;53.706;10.384;2023-04-25T05:27:51;6.80;99.90
18934;DHT22;9599;53.706;10.384;2023-04-25T05:30:38;6.80;99.90
18934;DHT22;9599;53.706;10.384;2023-04-25T05:33:10;6.90;99.90
18934;DHT22;9599;53.706;10.384;2023-04-25T05:35:38;6.90;99.90
18934;DHT22;9599;53.706;10.384;2023-04-25T05:38:06;6.90;99.90
18934;DHT22;9599;53.706;10.384;2023-04-25T05:40:53;7.00;99.90
18934;DHT22;9599;53.706;10.384;2023-04-25T05:43:41;7.00;99.90
18934;DHT22;9599;53.706;10.384;2023-04-25T05:46:39;7.00;99.90
18934;DHT22;9599;53.706;10.384;2023-04-25T05:49:28;7.00;99.90
18934;DHT22;9599;53.706;10.384;2023-04-25T05:52:14;6.90;99.90
18934;DHT22;9599;53.706;10.384;2023-04-25T05:54:49;6.80;99.90
18934;DHT22;9599;53.706;10.384;2023-04-25T05:57:22;6.80;99.90
18934;DHT22;9599;53.706;10.384;2023-04-25T05:59:53;6.80;99.90
18934;DHT22;9599;53.706;10.384;2023-04-25T06:02:27;6.90;99.90
18934;DHT22;9599;53.706;10.384;2023-04-25T06:04:55;6.80;99.90
18934;DHT22;9599;53.706;10.384;2023-04-25T06:07:23;6.90;99.90
18934;DHT22;9599;53.706;10.384;2023-04-25T06:09:51;6.90;99.90
18934;DHT22;9599;53.706;10.384;2023-04-25T06:12:20;7.00;99.90
18934;DHT22;9599;53.706;10.384;2023-04-25T06:14:49;7.10;99.90
18934;DHT22;9599;53.706;10.384;2023-04-25T06:17:18;7.10;99.90
18934;DHT22;9599;53.706;10.384;2023-04-25T06:19:49;7.20;99.90
18934;DHT22;9599;53.706;10.384;2023-04-25T06:22:17;7.10;99.90
18934;DHT22;9599;53.706;10.384;2023-04-25T06:24:45;7.10;99.90
18934;DHT22;9599;53.706;10.384;2023-04-25T06:27:13;7.10;99.90
18934;DHT22;9599;53.706;10.384;2023-04-25T06:29:43;7.20;99.90
18934;DHT22;9599;53.706;10.384;2023-04-25T06:32:10;7.20;99.90
18934;DHT22;9599;53.706;10.384;2023-04-25T06:34:41;7.20;99.90
18934;DHT22;9599;53.706;10.384;2023-04-25T06:37:09;7.20;99.90
18934;DHT22;9599;53.706;10.384;2023-04-25T06:39:37;7.20;99.90
18934;DHT22;9599;53.706;10.384;2023-04-25T06:42:07;7.30;99.90
18934;DHT22;9599;53.706;10.384;2023-04-25T06:44:57;7.30;99.90
18934;DHT22;9599;53.706;10.384;2023-04-25T06:47:28;7.40;99.90
18934;DHT22;9599;53.706;10.384;2023-04-25T06:49:57;7.40;99.90
18934;DHT22;9599;53.706;10.384;2023-04-25T06:52:25;7.30;99.90
18934;DHT22;9599;53.706;10.384;2023-04-25T06:54:54;7.30;99.90
18934;DHT22;9599;53.706;10.384;2023-04-25T06:57:34;7.20;99.90
18934;DHT22;9599;53.706;10.384;2023-04-25T07:00:22;7.30;99.90
18934;DHT22;9599;53.706;10.384;2023-04-25T07:02:50;7.40;99.90
18934;DHT22;9599;53.706;10.384;2023-04-25T07:05:19;7.50;99.90
18934;DHT22;9599;53.706;10.384;2023-04-25T07:07:48;7.50;99.90
18934;DHT22;9599;53.706;10.384;2023-04-25T07:10:16;7.60;99.90
18934;DHT22;9599;53.706;10.384;2023-04-25T07:12:44;7.60;99.90
18934;DHT22;9599;53.706;10.384;2023-04-25T07:15:12;7.60;99.90
18934;DHT22;9599;53.706;10.384;2023-04-25T07:17:43;7.50;99.90
18934;DHT22;9599;53.706;10.384;2023-04-25T07:20:11;7.40;99.90
18934;DHT22;9599;53.706;10.384;2023-04-25T07:22:41;7.20;99.90
18934;DHT22;9599;53.706;10.384;2023-04-25T07:25:10;7.20;99.90
18934;DHT22;9599;53.706;10.384;2023-04-25T07:27:38;7.20;99.90
18934;DHT22;9599;53.706;10.384;2023-04-25T07:30:12;7.40;99.90
18934;DHT22;9599;53.706;10.384;2023-04-25T07:32:40;7.70;99.90
18934;DHT22;9599;53.706;10.384;2023-04-25T07:35:09;8.00;99.90
18934;DHT22;9599;53.706;10.384;2023-04-25T07:37:37;7.90;99.90
18934;DHT22;9599;53.706;10.384;2023-04-25T07:40:12;8.10;99.90
18934;DHT22;9599;53.706;10.384;2023-04-25T07:42:45;8.30;99.90
18934;DHT22;9599;53.706;10.384;2023-04-25T07:45:17;8.50;99.90
18934;DHT22;9599;53.706;10.384;2023-04-25T07:47:45;8.50;99.90
18934;DHT22;9599;53.706;10.384;2023-04-25T07:50:13;8.40;99.90
18934;DHT22;9599;53.706;10.384;2023-04-25T07:52:41;8.40;99.90
18934;DHT22;9599;53.706;10.384;2023-04-25T07:55:19;8.50;99.90
18934;DHT22;9599;53.706;10.384;2023-04-25T07:57:56;8.40;99.90
18934;DHT22;9599;53.706;10.384;2023-04-25T08:00:28;8.40;99.90
18934;DHT22;9599;53.706;10.384;2023-04-25T08:03:16;8.50;99.90
18934;DHT22;9599;53.706;10.384;2023-04-25T08:05:45;8.70;99.90
18934;DHT22;9599;53.706;10.384;2023-04-25T08:08:13;9.00;99.90
18934;DHT22;9599;53.706;10.384;2023-04-25T08:10:43;9.00;99.90
18934;DHT22;9599;53.706;10.384;2023-04-25T08:13:12;9.10;99.90
18934;DHT22;9599;53.706;10.384;2023-04-25T08:15:40;9.40;99.90
18934;DHT22;9599;53.706;10.384;2023-04-25T08:18:08;9.60;99.90
18934;DHT22;9599;53.706;10.384;2023-04-25T08:20:36;9.60;99.90
18934;DHT22;9599;53.706;10.384;2023-04-25T08:23:07;9.50;99.90
18934;DHT22;9599;53.706;10.384;2023-04-25T08:25:59;9.60;99.90
18934;DHT22;9599;53.706;10.384;2023-04-25T08:28:29;9.50;99.90
18934;DHT22;9599;53.706;10.384;2023-04-25T08:30:59;9.40;99.90
18934;DHT22;9599;53.706;10.384;2023-04-25T08:33:34;9.30;99.90
18934;DHT22;9599;53.706;10.384;2023-04-25T08:36:14;9.20;99.90
18934;DHT22;9599;53.706;10.384;2023-04-25T08:39:01;9.10;99.90
18934;DHT22;9599;53.706;10.384;2023-04-25T08:41:31;9.10;99.90
18934;DHT22;9599;53.706;10.384;2023-04-25T08:43:59;8.90;99.90
18934;DHT22;9599;53.706;10.384;2023-04-25T08:46:28;8.80;99.90
18934;DHT22;9599;53.706;10.384;2023-04-25T08:49:21;8.40;99.90
18934;DHT22;9599;53.706;10.384;2023-04-25T08:51:49;8.20;99.90
18934;DHT22;9599;53.706;10.384;2023-04-25T08:54:23;8.10;99.90
18934;DHT22;9599;53.706;10.384;2023-04-25T08:57:05;8.30;99.90
18934;DHT22;9599;53.706;10.384;2023-04-25T08:59:34;8.60;99.90
18934;DHT22;9599;53.706;10.384;2023-04-25T09:02:05;8.70;99.90
18934;DHT22;9599;53.706;10.384;2023-04-25T09:04:36;8.80;99.90
18934;DHT22;9599;53.706;10.384;2023-04-25T09:07:04;9.00;99.90
18934;DHT22;9599;53.706;10.384;2023-04-25T09:09:33;9.10;99.90
18934;DHT22;9599;53.706;10.384;2023-04-25T09:12:01;9.20;99.90
18934;DHT22;9599;53.706;10.384;2023-04-25T09:14:31;9.60;99.90
18934;DHT22;9599;53.706;10.384;2023-04-25T09:17:10;9.80;99.90
18934;DHT22;9599;53.706;10.384;2023-04-25T09:19:48;9.70;99.90
18934;DHT22;9599;53.706;10.384;2023-04-25T09:22:36;9.40;99.90
18934;DHT22;9599;53.706;10.384;2023-04-25T09:25:08;9.20;99.90
18934;DHT22;9599;53.706;10.384;2023-04-25T09:27:49;9.00;99.90
18934;DHT22;9599;53.706;10.384;2023-04-25T09:30:30;8.90;99.90
18934;DHT22;9599;53.706;10.384;2023-04-25T09:33:16;9.10;99.90
18934;DHT22;9599;53.706;10.384;2023-04-25T09:35:48;9.20;99.90
18934;DHT22;9599;53.706;10.384;2023-04-25T09:38:30;9.20;99.90
18934;DHT22;9599;53.706;10.384;2023-04-25T09:41:09;9.10;99.90
18934;DHT22;9599;53.706;10.384;2023-04-25T09:43:45;9.10;99.90
18934;DHT22;9599;53.706;10.384;2023-04-25T09:46:15;9.10;99.90
18934;DHT22;9599;53.706;10.384;2023-04-25T09:48:51;9.30;99.90
18934;DHT22;9599;53.706;10.384;2023-04-25T09:51:31;9.10;99.90
18934;DHT22;9599;53.706;10.384;2023-04-25T09:54:00;9.00;99.90
18934;DHT22;9599;53.706;10.384;2023-04-25T09:56:36;9.20;99.90
18934;DHT22;9599;53.706;10.384;2023-04-25T09:59:07;9.50;99.90
18934;DHT22;9599;53.706;10.384;2023-04-25T10:01:40;9.70;99.90
18934;DHT22;9599;53.706;10.384;2023-04-25T10:04:17;9.80;99.90
18934;DHT22;9599;53.706;10.384;2023-04-25T10:06:58;9.90;99.90
18934;DHT22;9599;53.706;10.384;2023-04-25T10:09:29;10.20;99.90
18934;DHT22;9599;53.706;10.384;2023-04-25T10:12:00;10.30;99.90
18934;DHT22;9599;53.706;10.384;2023-04-25T10:14:29;10.10;99.90
18934;DHT22;9599;53.706;10.384;2023-04-25T10:16:59;10.00;99.90
18934;DHT22;9599;53.706;10.384;2023-04-25T10:19:27;9.90;99.90
18934;DHT22;9599;53.706;10.384;2023-04-25T10:22:04;9.80;99.90
18934;DHT22;9599;53.706;10.384;2023-04-25T10:24:35;10.20;99.90
18934;DHT22;9599;53.706;10.384;2023-04-25T10:27:03;10.50;99.90
18934;DHT22;9599;53.706;10.384;2023-04-25T10:29:32;10.60;99.90
18934;DHT22;9599;53.706;10.384;2023-04-25T10:32:02;10.40;99.90
18934;DHT22;9599;53.706;10.384;2023-04-25T10:34:40;10.10;99.90
18934;DHT22;9599;53.706;10.384;2023-04-25T10:37:10;9.90;99.90
18934;DHT22;9599;53.706;10.384;2023-04-25T10:39:39;9.70;99.90
18934;DHT22;9599;53.706;10.384;2023-04-25T10:42:08;9.60;99.90
18934;DHT22;9599;53.706;10.384;2023-04-25T10:44:37;9.30;99.90
18934;DHT22;9599;53.706;10.384;2023-04-25T10:47:07;8.80;99.90
18934;DHT22;9599;53.706;10.384;2023-04-25T10:49:38;8.20;99.90
18934;DHT22;9599;53.706;10.384;2023-04-25T10:52:16;8.00;99.90
18934;DHT22;9599;53.706;10.384;2023-04-25T10:54:50;8.20;99.90
18934;DHT22;9599;53.706;10.384;2023-04-25T10:57:29;8.50;99.90
18934;DHT22;9599;53.706;10.384;2023-04-25T11:00:15;8.70;99.90
18934;DHT22;9599;53.706;10.384;2023-04-25T11:02:46;9.10;99.90
18934;DHT22;9599;53.706;10.384;2023-04-25T11:05:22;9.30;99.90
18934;DHT22;9599;53.706;10.384;2023-04-25T11:07:52;9.10;99.90
18934;DHT22;9599;53.706;10.384;2023-04-25T11:10:34;9.00;99.90
18934;DHT22;9599;53.706;10.384;2023-04-25T11:13:03;8.80;99.90
18934;DHT22;9599;53.706;10.384;2023-04-25T11:15:31;8.50;99.90
18934;DHT22;9599;53.706;10.384;2023-04-25T11:18:00;8.50;99.90
18934;DHT22;9599;53.706;10.384;2023-04-25T11:20:29;8.50;99.90
18934;DHT22;9599;53.706;10.384;2023-04-25T11:22:58;8.60;99.90
18934;DHT22;9599;53.706;10.384;2023-04-25T11:25:26;8.70;99.90
18934;DHT22;9599;53.706;10.384;2023-04-25T11:27:55;9.00;99.90
18934;DHT22;9599;53.706;10.384;2023-04-25T11:30:24;9.30;99.90
18934;DHT22;9599;53.706;10.384;2023-04-25T11:32:53;9.60;99.90
18934;DHT22;9599;53.706;10.384;2023-04-25T11:35:22;9.80;99.90
18934;DHT22;9599;53.706;10.384;2023-04-25T11:37:52;9.90;99.90
18934;DHT22;9599;53.706;10.384;2023-04-25T11:40:20;9.80;99.90
18934;DHT22;9599;53.706;10.384;2023-04-25T11:42:48;9.70;99.90
18934;DHT22;9599;53.706;10.384;2023-04-25T11:45:17;9.80;99.90
18934;DHT22;9599;53.706;10.384;2023-04-25T11:47:45;9.90;99.90
18934;DHT22;9599;53.706;10.384;2023-04-25T11:50:13;9.90;99.90
18934;DHT22;9599;53.706;10.384;2023-04-25T11:52:44;9.90;99.90
18934;DHT22;9599;53.706;10.384;2023-04-25T11:55:13;9.80;99.90
18934;DHT22;9599;53.706;10.384;2023-04-25T11:57:43;9.50;99.90
18934;DHT22;9599;53.706;10.384;2023-04-25T12:00:13;8.90;99.90
18934;DHT22;9599;53.706;10.384;2023-04-25T12:02:46;8.30;99.90
18934;DHT22;9599;53.706;10.384;2023-04-25T12:05:15;8.00;99.90
18934;DHT22;9599;53.706;10.384;2023-04-25T12:08:09;8.00;99.90
18934;DHT22;9599;53.706;10.384;2023-04-25T12:10:39;7.90;99.90
18934;DHT22;9599;53.706;10.384;2023-04-25T12:13:20;8.10;99.90
18934;DHT22;9599;53.706;10.384;2023-04-25T12:15:49;8.40;99.90
18934;DHT22;9599;53.706;10.384;2023-04-25T12:18:19;8.80;99.90
18934;DHT22;9599;53.706;10.384;2023-04-25T12:20:48;9.10;99.90
18934;DHT22;9599;53.706;10.384;2023-04-25T12:23:26;9.30;99.90
18934;DHT22;9599;53.706;10.384;2023-04-25T12:25:54;9.40;99.90
18934;DHT22;9599;53.706;10.384;2023-04-25T12:28:24;9.40;99.90
18934;DHT22;9599;53.706;10.384;2023-04-25T12:30:58;9.40;99.90
18934;DHT22;9599;53.706;10.384;2023-04-25T12:33:27;9.40;99.90
18934;DHT22;9599;53.706;10.384;2023-04-25T12:35:56;9.30;99.90
18934;DHT22;9599;53.706;10.384;2023-04-25T12:38:27;9.30;99.90
18934;DHT22;9599;53.706;10.384;2023-04-25T12:40:56;9.60;99.90
18934;DHT22;9599;53.706;10.384;2023-04-25T12:43:25;9.60;99.90
18934;DHT22;9599;53.706;10.384;2023-04-25T12:45:54;9.60;99.90
18934;DHT22;9599;53.706;10.384;2023-04-25T12:48:24;9.50;99.90
18934;DHT22;9599;53.706;10.384;2023-04-25T12:50:52;9.50;99.90
18934;DHT22;9599;53.706;10.384;2023-04-25T12:53:22;9.30;99.90
18934;DHT22;9599;53.706;10.384;2023-04-25T12:55:52;9.10;99.90
18934;DHT22;9599;53.706;10.384;2023-04-25T12:58:21;9.10;99.90
18934;DHT22;9599;53.706;10.384;2023-04-25T13:00:50;8.90;99.90
18934;DHT22;9599;53.706;10.384;2023-04-25T13:03:18;8.80;99.90
18934;DHT22;9599;53.706;10.384;2023-04-25T13:05:46;8.60;99.90
18934;DHT22;9599;53.706;10.384;2023-04-25T13:08:14;8.80;99.90
18934;DHT22;9599;53.706;10.384;2023-04-25T13:10:42;9.00;99.90
18934;DHT22;9599;53.706;10.384;2023-04-25T13:13:13;9.30;99.90
18934;DHT22;9599;53.706;10.384;2023-04-25T13:15:41;9.70;99.90
18934;DHT22;9599;53.706;10.384;2023-04-25T13:18:09;9.70;99.90
18934;DHT22;9599;53.706;10.384;2023-04-25T13:20:37;9.70;99.90
18934;DHT22;9599;53.706;10.384;2023-04-25T13:23:05;9.60;99.90
18934;DHT22;9599;53.706;10.384;2023-04-25T13:25:33;9.50;99.90
18934;DHT22;9599;53.706;10.384;2023-04-25T13:28:01;9.70;99.90
18934;DHT22;9599;53.706;10.384;2023-04-25T13:30:31;9.80;99.90
18934;DHT22;9599;53.706;10.384;2023-04-25T13:32:58;9.90;99.90
18934;DHT22;9599;53.706;10.384;2023-04-25T13:35:30;10.10;99.90
18934;DHT22;9599;53.706;10.384;2023-04-25T13:37:58;10.10;99.90
18934;DHT22;9599;53.706;10.384;2023-04-25T13:40:26;10.10;99.90
18934;DHT22;9599;53.706;10.384;2023-04-25T13:42:55;10.00;99.90
18934;DHT22;9599;53.706;10.384;2023-04-25T13:45:23;10.20;99.90
18934;DHT22;9599;53.706;10.384;2023-04-25T13:47:52;10.40;99.90
18934;DHT22;9599;53.706;10.384;2023-04-25T13:50:20;10.40;99.90
18934;DHT22;9599;53.706;10.384;2023-04-25T13:52:48;10.50;99.90
18934;DHT22;9599;53.706;10.384;2023-04-25T13:55:16;10.40;99.90
18934;DHT22;9599;53.706;10.384;2023-04-25T13:57:44;10.20;99.90
18934;DHT22;9599;53.706;10.384;2023-04-25T14:00:14;10.10;99.90
18934;DHT22;9599;53.706;10.384;2023-04-25T14:02:42;10.10;99.90
18934;DHT22;9599;53.706;10.384;2023-04-25T14:05:12;10.40;99.90
18934;DHT22;9599;53.706;10.384;2023-04-25T14:07:40;10.50;99.90
18934;DHT22;9599;53.706;10.384;2023-04-25T14:10:08;10.50;99.90
18934;DHT22;9599;53.706;10.384;2023-04-25T14:12:36;10.50;99.90
18934;DHT22;9599;53.706;10.384;2023-04-25T14:15:05;10.60;99.90
18934;DHT22;9599;53.706;10.384;2023-04-25T14:17:33;10.70;99.90
18934;DHT22;9599;53.706;10.384;2023-04-25T14:20:01;10.70;99.90
18934;DHT22;9599;53.706;10.384;2023-04-25T14:22:33;10.50;99.90
18934;DHT22;9599;53.706;10.384;2023-04-25T14:25:01;10.50;99.90
18934;DHT22;9599;53.706;10.384;2023-04-25T14:27:29;10.50;99.90
18934;DHT22;9599;53.706;10.384;2023-04-25T14:29:57;10.60;99.90
18934;DHT22;9599;53.706;10.384;2023-04-25T14:32:25;10.50;99.90
18934;DHT22;9599;53.706;10.384;2023-04-25T14:34:53;10.40;99.90
18934;DHT22;9599;53.706;10.384;2023-04-25T14:37:21;10.20;99.90
18934;DHT22;9599;53.706;10.384;2023-04-25T14:39:50;10.00;99.90
18934;DHT22;9599;53.706;10.384;2023-04-25T14:42:18;10.10;99.90
18934;DHT22;9599;53.706;10.384;2023-04-25T14:44:46;10.10;99.90
18934;DHT22;9599;53.706;10.384;2023-04-25T14:47:14;10.00;99.90
18934;DHT22;9599;53.706;10.384;2023-04-25T14:49:42;10.10;99.90
18934;DHT22;9599;53.706;10.384;2023-04-25T14:52:13;10.20;99.90
18934;DHT22;9599;53.706;10.384;2023-04-25T14:54:41;10.30;99.90
18934;DHT22;9599;53.706;10.384;2023-04-25T14:57:10;10.20;99.90
18934;DHT22;9599;53.706;10.384;2023-04-25T14:59:38;10.10;99.90
18934;DHT22;9599;53.706;10.384;2023-04-25T15:02:06;9.90;99.90
18934;DHT22;9599;53.706;10.384;2023-04-25T15:04:34;9.80;99.90
18934;DHT22;9599;53.706;10.384;2023-04-25T15:07:02;9.50;99.90
18934;DHT22;9599;53.706;10.384;2023-04-25T15:09:30;9.00;99.90
18934;DHT22;9599;53.706;10.384;2023-04-25T15:11:58;8.30;99.90
18934;DHT22;9599;53.706;10.384;2023-04-25T15:14:28;7.90;99.90
18934;DHT22;9599;53.706;10.384;2023-04-25T15:16:56;7.50;99.90
18934;DHT22;9599;53.706;10.384;2023-04-25T15:19:24;7.50;99.90
18934;DHT22;9599;53.706;10.384;2023-04-25T15:21:52;7.50;99.90
18934;DHT22;9599;53.706;10.384;2023-04-25T15:24:20;7.50;99.90
18934;DHT22;9599;53.706;10.384;2023-04-25T15:26:48;7.50;99.90
18934;DHT22;9599;53.706;10.384;2023-04-25T15:29:17;7.60;99.90
18934;DHT22;9599;53.706;10.384;2023-04-25T15:31:47;7.70;99.90
18934;DHT22;9599;53.706;10.384;2023-04-25T15:34:15;7.90;99.90
18934;DHT22;9599;53.706;10.384;2023-04-25T15:36:42;8.10;99.90
18934;DHT22;9599;53.706;10.384;2023-04-25T15:39:10;8.40;99.90
18934;DHT22;9599;53.706;10.384;2023-04-25T15:41:38;8.50;99.90
18934;DHT22;9599;53.706;10.384;2023-04-25T15:44:07;8.60;99.90
18934;DHT22;9599;53.706;10.384;2023-04-25T15:46:37;8.60;99.90
18934;DHT22;9599;53.706;10.384;2023-04-25T15:49:06;8.50;99.90
18934;DHT22;9599;53.706;10.384;2023-04-25T15:51:35;8.40;99.90
18934;DHT22;9599;53.706;10.384;2023-04-25T15:54:03;8.60;99.90
18934;DHT22;9599;53.706;10.384;2023-04-25T15:56:31;8.80;99.90
18934;DHT22;9599;53.706;10.384;2023-04-25T15:58:58;8.80;99.90
18934;DHT22;9599;53.706;10.384;2023-04-25T16:01:26;8.90;99.90
18934;DHT22;9599;53.706;10.384;2023-04-25T16:03:57;9.10;99.90
18934;DHT22;9599;53.706;10.384;2023-04-25T16:06:27;9.40;99.90
18934;DHT22;9599;53.706;10.384;2023-04-25T16:08:55;9.60;99.90
18934;DHT22;9599;53.706;10.384;2023-04-25T16:11:23;9.70;99.90